Time;durP1;ratioP1;P1;durP2;ratioP2;P2;SDS_P1;SDS_P2;PMS_P1;PMS_P2;Temp;Humidity;BMP_temperature;BMP_pressure;BME280_temperature;BME280_humidity;BME280_pressure;Samples;Min_cycle;Max_cycle;Signal;HPM_P1;HPM_P2
2022/03/26 00:02:19;;;;;;;21.08;10.93;;;14.30;43.90;;;;;;5064126;28;20090;-81
2022/03/26 00:04:45;;;;;;;17.60;10.23;;;14.30;43.80;;;;;;5056986;28;20372;-81
2022/03/26 00:07:10;;;;;;;21.45;10.63;;;14.40;44.10;;;;;;5075045;28;20116;-81
2022/03/26 00:09:38;;;;;;;19.42;10.55;;;14.40;44.00;;;;;;5066794;28;20039;-81
2022/03/26 00:12:04;;;;;;;24.65;10.60;;;13.60;44.90;;;;;;5076856;28;20024;-81
2022/03/26 00:14:30;;;;;;;18.90;9.90;;;13.80;45.40;;;;;;5095130;28;20032;-80
2022/03/26 00:16:56;;;;;;;22.38;11.15;;;14.10;44.60;;;;;;5095042;28;20028;-80
2022/03/26 00:19:22;;;;;;;17.63;11.07;;;14.20;43.90;;;;;;5075542;28;20035;-80
2022/03/26 00:21:48;;;;;;;26.00;11.95;;;14.40;43.60;;;;;;5057907;28;20059;-80
2022/03/26 00:24:14;;;;;;;17.98;10.50;;;14.00;43.90;;;;;;5056534;28;20021;-80
2022/03/26 00:26:40;;;;;;;21.13;10.52;;;13.70;44.60;;;;;;5074541;28;20029;-80
2022/03/26 00:29:08;;;;;;;22.13;10.68;;;13.40;44.70;;;;;;5080723;28;20081;-80
2022/03/26 00:31:34;;;;;;;18.50;9.88;;;13.00;45.70;;;;;;5076570;28;20016;-81
2022/03/26 00:34:00;;;;;;;17.95;9.60;;;12.80;46.10;;;;;;5094740;28;20111;-80
2022/03/26 00:36:26;;;;;;;18.20;9.20;;;13.10;46.00;;;;;;5094676;28;20024;-80
2022/03/26 00:38:52;;;;;;;14.88;8.60;;;13.40;45.40;;;;;;5075797;28;20032;-80
2022/03/26 00:41:18;;;;;;;19.10;9.68;;;13.60;45.00;;;;;;5055918;28;20431;-80
2022/03/26 00:43:44;;;;;;;17.90;9.25;;;13.80;44.70;;;;;;5056118;28;20526;-79
2022/03/26 00:46:11;;;;;;;18.13;9.27;;;14.10;44.50;;;;;;5064917;28;20034;-78
2022/03/26 00:48:36;;;;;;;17.73;9.82;;;13.90;43.80;;;;;;5076014;28;20130;-80
2022/03/26 00:51:02;;;;;;;20.17;10.52;;;13.60;44.40;;;;;;5076035;28;20115;-79
2022/03/26 00:53:28;;;;;;;17.83;10.90;;;13.50;45.00;;;;;;5075777;28;20486;-80
2022/03/26 00:55:54;;;;;;;19.65;10.88;;;13.60;44.80;;;;;;5091869;28;20027;-79
2022/03/26 00:58:20;;;;;;;25.45;11.18;;;13.90;44.20;;;;;;5075872;28;20032;-80
2022/03/26 01:00:46;;;;;;;22.83;10.90;;;13.90;44.10;;;;;;5094063;28;20090;-79
2022/03/26 01:03:12;;;;;;;22.27;11.35;;;13.80;44.40;;;;;;5094087;28;20031;-79
2022/03/26 01:05:38;;;;;;;17.98;10.18;;;13.60;44.20;;;;;;5073792;28;20469;-78
2022/03/26 01:08:04;;;;;;;15.90;10.15;;;13.80;44.20;;;;;;5057217;28;20036;-80
2022/03/26 01:10:30;;;;;;;17.23;9.80;;;13.70;44.00;;;;;;5073476;28;20025;-79
2022/03/26 01:12:56;;;;;;;18.65;9.60;;;13.70;44.20;;;;;;5055698;28;20033;-79
2022/03/26 01:15:22;;;;;;;19.17;9.95;;;13.80;44.00;;;;;;5086182;28;20049;-79
2022/03/26 01:17:49;;;;;;;18.98;10.20;;;13.70;43.90;;;;;;5093614;28;20024;-79
2022/03/26 01:20:16;;;;;;;20.25;9.32;;;13.50;44.40;;;;;;5093302;28;20024;-80
2022/03/26 01:22:42;;;;;;;18.77;9.95;;;13.60;44.60;;;;;;5093688;28;20065;-80
2022/03/26 01:25:08;;;;;;;23.88;11.45;;;13.80;44.50;;;;;;5064094;28;20028;-80
2022/03/26 01:27:34;;;;;;;22.00;12.07;;;13.60;44.20;;;;;;5051693;28;20048;-80
2022/03/26 01:29:59;;;;;;;20.88;10.98;;;13.30;44.70;;;;;;5052944;28;20395;-80
2022/03/26 01:32:25;;;;;;;25.17;12.75;;;13.30;44.80;;;;;;5053239;28;20029;-79
2022/03/26 01:34:51;;;;;;;22.02;13.07;;;13.40;44.70;;;;;;5052152;28;20021;-80
2022/03/26 01:37:16;;;;;;;22.15;12.60;;;13.50;44.70;;;;;;5052921;28;20021;-79
2022/03/26 01:39:43;;;;;;;20.30;10.13;;;13.70;44.40;;;;;;5035311;28;20471;-80
2022/03/26 01:42:09;;;;;;;18.25;10.48;;;13.90;44.30;;;;;;5054285;28;20025;-80
2022/03/26 01:44:37;;;;;;;18.95;10.45;;;13.90;44.20;;;;;;5053151;28;20538;-79
2022/03/26 01:47:04;;;;;;;20.23;10.20;;;13.50;44.20;;;;;;5051982;28;20124;-80
2022/03/26 01:49:31;;;;;;;18.95;9.63;;;13.50;44.50;;;;;;5053143;28;20055;-80
2022/03/26 01:51:59;;;;;;;19.52;11.35;;;13.10;44.80;;;;;;5067725;28;20020;-81
2022/03/26 01:54:27;;;;;;;17.92;10.10;;;12.60;46.00;;;;;;5071694;28;20471;-80
2022/03/26 01:56:54;;;;;;;19.02;10.45;;;12.60;46.50;;;;;;5071993;28;20028;-79
2022/03/26 01:59:20;;;;;;;21.60;10.65;;;12.90;46.10;;;;;;5072952;28;20028;-80
2022/03/26 02:01:46;;;;;;;23.17;10.98;;;12.90;45.60;;;;;;5056777;28;20037;-80
2022/03/26 02:04:12;;;;;;;26.70;13.38;;;12.80;45.80;;;;;;5046919;28;20036;-80
2022/03/26 02:06:39;;;;;;;19.73;11.75;;;12.90;46.20;;;;;;5071362;28;20386;-80
2022/03/26 02:09:14;;;;;;;20.88;11.52;;;13.20;45.90;;;;;;5071658;28;20398;-79
2022/03/26 02:11:43;;;;;;;20.63;11.27;;;13.00;45.70;;;;;;5058358;28;20036;-77
2022/03/26 02:14:10;;;;;;;27.90;14.40;;;12.80;46.10;;;;;;5052601;28;20028;-80
2022/03/26 02:16:38;;;;;;;24.27;13.50;;;12.60;46.60;;;;;;5053024;28;20087;-80
2022/03/26 02:19:06;;;;;;;23.73;12.20;;;12.40;46.90;;;;;;5051840;28;20041;-80
2022/03/26 02:21:34;;;;;;;20.65;10.70;;;12.60;46.60;;;;;;5061810;28;20463;-80
2022/03/26 02:24:02;;;;;;;20.55;10.10;;;12.30;46.60;;;;;;5052944;28;20430;-78
2022/03/26 02:26:28;;;;;;;18.15;10.10;;;11.90;47.50;;;;;;5051754;28;20032;-80
2022/03/26 02:28:55;;;;;;;21.52;9.93;;;12.00;47.80;;;;;;5051088;28;20041;-79
2022/03/26 02:31:21;;;;;;;26.05;12.43;;;12.50;47.00;;;;;;5061090;28;20386;-79
2022/03/26 02:33:48;;;;;;;17.67;10.50;;;12.80;46.50;;;;;;5071415;28;20477;-80
2022/03/26 02:36:14;;;;;;;21.40;11.10;;;12.80;45.60;;;;;;5071608;28;20028;-79
2022/03/26 02:38:40;;;;;;;24.27;12.98;;;12.50;45.70;;;;;;5071658;28;20033;-80
2022/03/26 02:41:06;;;;;;;28.38;13.40;;;12.60;46.00;;;;;;5064177;28;20488;-80
2022/03/26 02:43:32;;;;;;;22.80;12.98;;;12.80;45.90;;;;;;5066127;28;20037;-80
2022/03/26 02:45:58;;;;;;;23.30;12.27;;;12.90;45.70;;;;;;5075307;28;20017;-80
2022/03/26 02:48:24;;;;;;;25.83;14.45;;;13.00;45.30;;;;;;5075511;28;20106;-80
2022/03/26 02:50:49;;;;;;;26.92;13.27;;;12.90;45.30;;;;;;5057643;28;20426;-80
2022/03/26 02:53:15;;;;;;;28.13;13.73;;;13.00;45.30;;;;;;5056065;28;20032;-79
2022/03/26 02:55:41;;;;;;;23.60;13.27;;;13.10;45.20;;;;;;5055149;28;20049;-80
2022/03/26 02:58:08;;;;;;;27.48;12.57;;;12.90;45.10;;;;;;5056455;28;20387;-79
2022/03/26 03:00:35;;;;;;;22.95;11.82;;;12.90;45.40;;;;;;5056190;28;20151;-79
2022/03/26 03:03:01;;;;;;;22.08;11.35;;;12.70;45.40;;;;;;5073206;28;20043;-80
2022/03/26 03:05:27;;;;;;;21.65;11.65;;;12.10;46.00;;;;;;5074605;28;20017;-80
2022/03/26 03:07:53;;;;;;;20.00;11.35;;;11.90;46.90;;;;;;5057871;28;20427;-80
2022/03/26 03:10:19;;;;;;;23.38;11.63;;;11.80;47.20;;;;;;5075439;28;20028;-80
2022/03/26 03:12:47;;;;;;;24.13;12.88;;;11.60;47.60;;;;;;5057698;28;20025;-80
2022/03/26 03:15:15;;;;;;;23.42;11.30;;;11.20;48.80;;;;;;5057887;28;20025;-80
2022/03/26 03:17:41;;;;;;;21.92;11.57;;;11.20;48.60;;;;;;5058297;28;20383;-79
2022/03/26 03:20:09;;;;;;;20.70;10.43;;;11.20;48.30;;;;;;5071988;28;20120;-80
2022/03/26 03:22:35;;;;;;;21.77;11.43;;;11.40;48.20;;;;;;5055939;28;20021;-80
2022/03/26 03:25:01;;;;;;;20.42;11.43;;;11.70;48.40;;;;;;5037744;28;20080;-80
2022/03/26 03:27:28;;;;;;;24.95;12.35;;;11.90;48.50;;;;;;5055594;28;20045;-80
2022/03/26 03:29:53;;;;;;;23.92;13.18;;;12.00;48.30;;;;;;5056947;28;20116;-80
2022/03/26 03:32:19;;;;;;;24.33;12.23;;;12.20;47.80;;;;;;5057316;28;20115;-80
2022/03/26 03:34:45;;;;;;;23.30;11.85;;;12.30;47.70;;;;;;5075572;28;20464;-80
2022/03/26 03:37:11;;;;;;;20.98;11.10;;;12.40;47.40;;;;;;5073292;28;20025;-81
2022/03/26 03:39:37;;;;;;;21.23;11.45;;;12.60;47.40;;;;;;5037321;28;20442;-81
2022/03/26 03:42:04;;;;;;;20.52;11.13;;;12.70;46.70;;;;;;5054001;28;20021;-80
2022/03/26 03:44:30;;;;;;;20.70;11.50;;;12.60;46.20;;;;;;5037658;28;20036;-79
2022/03/26 03:46:56;;;;;;;25.65;11.93;;;12.50;46.40;;;;;;5055290;28;20021;-80
2022/03/26 03:49:22;;;;;;;23.75;12.98;;;11.90;47.10;;;;;;5072865;28;20071;-80
2022/03/26 03:51:48;;;;;;;25.15;13.57;;;11.40;47.30;;;;;;5075343;28;20016;-80
2022/03/26 03:54:14;;;;;;;23.55;12.25;;;11.30;47.90;;;;;;5074344;28;20087;-80
2022/03/26 03:56:39;;;;;;;23.52;11.05;;;11.20;48.00;;;;;;5064598;28;20025;-80
2022/03/26 03:59:05;;;;;;;21.33;11.85;;;11.30;48.30;;;;;;5053734;28;20032;-80
2022/03/26 04:01:31;;;;;;;21.00;11.50;;;11.40;49.20;;;;;;5037289;28;20474;-80
2022/03/26 04:03:58;;;;;;;23.42;11.85;;;11.50;48.60;;;;;;5055129;28;20526;-80
2022/03/26 04:06:24;;;;;;;23.98;12.10;;;11.50;49.40;;;;;;5050987;28;20056;-79
2022/03/26 04:08:50;;;;;;;20.83;11.70;;;11.50;48.80;;;;;;5074641;28;20064;-79
2022/03/26 04:11:16;;;;;;;22.73;12.10;;;11.50;48.50;;;;;;5073660;28;20063;-79
2022/03/26 04:13:41;;;;;;;22.73;11.65;;;11.50;48.60;;;;;;5074851;28;20051;-79
2022/03/26 04:16:08;;;;;;;21.63;12.18;;;11.10;48.40;;;;;;5057757;28;20118;-80
2022/03/26 04:18:34;;;;;;;22.65;11.95;;;11.00;48.40;;;;;;5053577;28;20041;-80
2022/03/26 04:21:00;;;;;;;23.30;10.95;;;10.90;48.60;;;;;;5053346;28;20036;-79
2022/03/26 04:23:26;;;;;;;21.95;11.48;;;10.70;48.70;;;;;;5054511;28;20115;-80
2022/03/26 04:25:52;;;;;;;22.98;11.27;;;10.90;49.20;;;;;;5066222;28;20025;-80
2022/03/26 04:28:18;;;;;;;39.50;18.17;;;11.20;49.20;;;;;;5056025;28;20091;-79
2022/03/26 04:30:43;;;;;;;27.60;14.15;;;11.30;49.90;;;;;;5074440;28;20029;-79
2022/03/26 04:33:09;;;;;;;22.65;11.27;;;11.40;50.10;;;;;;5074279;28;20029;-79
2022/03/26 04:35:35;;;;;;;32.45;16.33;;;11.50;50.10;;;;;;5056089;28;20418;-79
2022/03/26 04:38:02;;;;;;;64.60;28.85;;;11.60;48.60;;;;;;5054684;28;20029;-80
2022/03/26 04:40:28;;;;;;;61.58;26.25;;;11.70;48.20;;;;;;5036382;28;20476;-80
2022/03/26 04:42:55;;;;;;;63.85;27.05;;;11.80;48.40;;;;;;5036337;28;20025;-80
2022/03/26 04:45:23;;;;;;;55.00;25.02;;;11.90;48.40;;;;;;5062683;28;20092;-79
2022/03/26 04:47:49;;;;;;;41.58;19.42;;;11.90;48.80;;;;;;5036138;28;20475;-80
2022/03/26 04:50:15;;;;;;;33.42;15.10;;;11.90;47.70;;;;;;5054263;28;20048;-81
2022/03/26 04:52:41;;;;;;;21.65;10.88;;;12.10;47.40;;;;;;5041695;28;20467;-79
2022/03/26 04:55:08;;;;;;;19.30;9.50;;;12.20;47.40;;;;;;5052800;28;20387;-78
2022/03/26 04:57:42;;;;;;;14.23;8.65;;;12.40;47.70;;;;;;5052976;28;20630;-79
2022/03/26 05:00:11;;;;;;;15.25;7.95;;;12.50;47.80;;;;;;5040501;28;20070;-78
2022/03/26 05:02:39;;;;;;;15.77;8.70;;;12.40;47.60;;;;;;5073065;28;20029;-79
2022/03/26 05:05:06;;;;;;;14.88;8.38;;;12.40;47.80;;;;;;5071480;28;20052;-79
2022/03/26 05:07:46;;;;;;;18.17;9.25;;;12.60;48.10;;;;;;5073337;28;20024;-79
2022/03/26 05:10:21;;;;;;;17.25;8.48;;;12.70;48.40;;;;;;5064077;28;20499;-79
2022/03/26 05:12:48;;;;;;;16.13;8.65;;;12.60;48.80;;;;;;5071477;28;20406;-78
2022/03/26 05:15:15;;;;;;;21.48;8.65;;;12.60;48.90;;;;;;5069734;28;20025;-79
2022/03/26 05:17:41;;;;;;;17.00;8.90;;;12.70;48.70;;;;;;5062386;28;20545;-78
2022/03/26 05:20:09;;;;;;;19.25;8.85;;;12.40;49.10;;;;;;5063229;28;20133;-79
2022/03/26 05:22:35;;;;;;;13.43;8.20;;;12.30;50.30;;;;;;5071138;28;20028;-80
2022/03/26 05:25:01;;;;;;;16.50;8.50;;;12.20;50.90;;;;;;5066220;28;20467;-80
2022/03/26 05:27:27;;;;;;;14.80;8.15;;;12.40;50.50;;;;;;5049048;28;20025;-80
2022/03/26 05:29:52;;;;;;;20.08;8.73;;;12.70;50.10;;;;;;5073655;28;20032;-80
2022/03/26 05:32:19;;;;;;;16.70;8.80;;;12.90;50.60;;;;;;5055516;28;20025;-80
2022/03/26 05:34:45;;;;;;;17.48;9.15;;;13.10;50.20;;;;;;5055690;28;20069;-78
2022/03/26 05:37:11;;;;;;;20.23;9.93;;;13.30;49.90;;;;;;5058762;28;20443;-78
2022/03/26 05:39:37;;;;;;;18.15;9.48;;;13.40;50.40;;;;;;5077740;28;20028;-79
2022/03/26 05:42:03;;;;;;;18.25;10.77;;;13.40;50.80;;;;;;5054668;28;20033;-78
2022/03/26 05:44:28;;;;;;;21.50;10.93;;;13.40;51.00;;;;;;5072329;28;20027;-79
2022/03/26 05:46:54;;;;;;;20.95;10.05;;;13.60;50.60;;;;;;5071971;28;20028;-78
2022/03/26 05:49:21;;;;;;;19.17;9.88;;;13.80;50.10;;;;;;5071977;28;20546;-79
2022/03/26 05:51:47;;;;;;;18.15;9.98;;;13.80;50.10;;;;;;5064993;28;20569;-77
2022/03/26 05:54:13;;;;;;;17.45;8.85;;;13.90;49.70;;;;;;5074922;28;20077;-77
2022/03/26 05:56:39;;;;;;;19.23;9.88;;;14.00;49.70;;;;;;5092942;28;20024;-78
2022/03/26 05:59:06;;;;;;;17.65;8.80;;;14.00;49.80;;;;;;5092210;28;20106;-79
2022/03/26 06:01:32;;;;;;;15.13;8.05;;;14.20;49.20;;;;;;5091632;28;20082;-77
2022/03/26 06:03:58;;;;;;;16.73;8.43;;;14.40;48.90;;;;;;5082775;28;20470;-78
2022/03/26 06:06:24;;;;;;;25.50;8.82;;;14.50;48.50;;;;;;5092635;28;20077;-78
2022/03/26 06:08:51;;;;;;;16.08;8.00;;;14.70;48.50;;;;;;5092231;28;20486;-78
2022/03/26 06:11:16;;;;;;;13.90;8.02;;;14.80;48.60;;;;;;5093065;28;20062;-81
2022/03/26 06:13:42;;;;;;;16.75;8.40;;;14.90;48.20;;;;;;5074967;28;20055;-79
2022/03/26 06:16:08;;;;;;;16.90;8.95;;;15.00;47.90;;;;;;5075235;28;20027;-77
2022/03/26 06:18:33;;;;;;;19.92;8.70;;;15.10;47.70;;;;;;5073569;28;20023;-79
2022/03/26 06:21:00;;;;;;;16.38;8.52;;;15.20;47.40;;;;;;5060519;28;20062;-79
2022/03/26 06:23:26;;;;;;;18.67;8.82;;;15.20;47.40;;;;;;5069284;28;20054;-78
2022/03/26 06:26:01;;;;;;;20.20;9.02;;;14.90;47.60;;;;;;5066288;28;20024;-76
2022/03/26 06:28:27;;;;;;;14.65;8.65;;;15.10;47.50;;;;;;5089808;28;20048;-79
2022/03/26 06:30:53;;;;;;;13.68;7.53;;;15.30;47.10;;;;;;5099078;28;20020;-78
2022/03/26 06:33:19;;;;;;;14.15;7.95;;;15.70;46.70;;;;;;5086583;28;20471;-79
2022/03/26 06:35:46;;;;;;;16.23;8.40;;;15.90;46.50;;;;;;5072650;28;20122;-78
2022/03/26 06:38:12;;;;;;;16.38;8.00;;;15.80;46.50;;;;;;5077969;28;20039;-77
2022/03/26 06:40:39;;;;;;;15.70;7.70;;;15.60;46.90;;;;;;5072304;28;20017;-79
2022/03/26 06:43:06;;;;;;;16.13;8.68;;;15.40;47.40;;;;;;5061535;28;20029;-80
2022/03/26 06:45:32;;;;;;;15.77;7.70;;;15.40;47.20;;;;;;5075430;28;20027;-78
2022/03/26 06:47:58;;;;;;;14.00;7.18;;;15.60;46.90;;;;;;5059466;28;20119;-81
2022/03/26 06:50:24;;;;;;;16.02;8.50;;;15.90;46.70;;;;;;5060728;28;20115;-79
2022/03/26 06:52:50;;;;;;;14.85;7.53;;;16.30;46.20;;;;;;5076410;28;20020;-79
2022/03/26 06:55:16;;;;;;;15.80;8.07;;;16.70;45.60;;;;;;5058759;28;20020;-79
2022/03/26 06:57:42;;;;;;;15.32;7.78;;;16.80;45.40;;;;;;5077147;28;20362;-78
2022/03/26 07:00:09;;;;;;;12.50;7.20;;;17.10;44.90;;;;;;5058296;28;20028;-79
2022/03/26 07:02:36;;;;;;;17.77;7.75;;;17.30;43.90;;;;;;5075908;28;20028;-79
2022/03/26 07:05:02;;;;;;;15.07;7.30;;;17.50;43.50;;;;;;5075878;28;20479;-79
2022/03/26 07:07:28;;;;;;;12.98;7.65;;;17.80;43.30;;;;;;5075922;28;20459;-80
2022/03/26 07:09:53;;;;;;;15.27;8.30;;;17.80;43.20;;;;;;5075787;28;20037;-79
2022/03/26 07:12:19;;;;;;;16.35;8.00;;;17.80;42.90;;;;;;5061469;28;20035;-80
2022/03/26 07:14:45;;;;;;;14.23;8.13;;;17.90;43.20;;;;;;5059116;28;20075;-80
2022/03/26 07:17:11;;;;;;;14.02;7.88;;;18.10;42.90;;;;;;5058655;28;20024;-80
2022/03/26 07:19:37;;;;;;;14.25;7.38;;;18.40;43.10;;;;;;5058625;28;20045;-79
2022/03/26 07:22:03;;;;;;;14.23;8.38;;;18.50;42.90;;;;;;5058686;28;20033;-80
2022/03/26 07:24:28;;;;;;;19.50;7.88;;;18.70;42.80;;;;;;5058837;28;20383;-79
2022/03/26 07:26:54;;;;;;;20.00;8.45;;;18.90;42.80;;;;;;5076690;28;20095;-80
2022/03/26 07:29:19;;;;;;;12.40;7.78;;;19.20;41.70;;;;;;5074920;28;20044;-80
2022/03/26 07:31:45;;;;;;;17.20;7.45;;;19.50;41.20;;;;;;5077361;28;20025;-80
2022/03/26 07:34:12;;;;;;;15.23;7.90;;;19.90;40.80;;;;;;5060410;28;20442;-81
2022/03/26 07:36:38;;;;;;;15.95;7.63;;;20.40;40.30;;;;;;5058065;28;20071;-81
2022/03/26 07:39:03;;;;;;;16.90;7.70;;;21.00;39.10;;;;;;5059483;28;20048;-81
2022/03/26 07:41:29;;;;;;;14.27;7.53;;;21.70;38.50;;;;;;5077133;28;20020;-81
2022/03/26 07:43:55;;;;;;;12.85;7.40;;;22.50;37.60;;;;;;5059170;28;20032;-81
2022/03/26 07:46:21;;;;;;;18.45;7.28;;;23.00;37.10;;;;;;5057337;28;20063;-81
2022/03/26 07:48:48;;;;;;;14.98;7.45;;;23.40;36.80;;;;;;5057559;28;20032;-81
2022/03/26 07:51:13;;;;;;;13.23;6.95;;;23.70;36.50;;;;;;5057425;28;20028;-81
2022/03/26 07:53:39;;;;;;;14.52;7.25;;;23.40;36.40;;;;;;5059020;28;20029;-81
2022/03/26 07:56:05;;;;;;;14.70;7.50;;;24.30;35.60;;;;;;5057454;28;20020;-81
2022/03/26 07:58:37;;;;;;;13.65;7.57;;;25.20;35.40;;;;;;5077801;28;20042;-80
2022/03/26 08:01:03;;;;;;;16.58;7.82;;;25.80;35.10;;;;;;5075768;28;20055;-81
2022/03/26 08:03:29;;;;;;;17.48;7.35;;;25.90;34.40;;;;;;5056881;28;20482;-81
2022/03/26 08:05:55;;;;;;;14.55;7.47;;;26.00;34.50;;;;;;5057767;28;20024;-80
2022/03/26 08:08:21;;;;;;;13.40;7.10;;;25.60;34.50;;;;;;5076399;28;20083;-80
2022/03/26 08:10:47;;;;;;;16.23;7.43;;;26.00;34.60;;;;;;5058172;28;20020;-81
2022/03/26 08:13:15;;;;;;;14.60;7.75;;;27.10;34.10;;;;;;5075954;28;20029;-81
2022/03/26 08:15:41;;;;;;;12.55;6.60;;;28.60;33.40;;;;;;5074635;28;20094;-82
2022/03/26 08:18:08;;;;;;;19.20;7.40;;;29.10;32.70;;;;;;5079769;28;20479;-83
2022/03/26 08:20:34;;;;;;;15.98;7.35;;;29.50;32.60;;;;;;5074002;28;20020;-80
2022/03/26 08:22:59;;;;;;;13.50;7.43;;;29.80;32.20;;;;;;5083478;28;20037;-81
2022/03/26 08:28:13;;;;;;;13.90;7.72;;;30.60;32.10;;;;;;5081085;28;20071;-81
2022/03/26 08:30:40;;;;;;;26.08;8.10;;;30.60;31.60;;;;;;5078471;28;20035;-81
2022/03/26 08:33:06;;;;;;;19.10;7.80;;;30.50;31.80;;;;;;5082887;28;20032;-80
2022/03/26 08:35:39;;;;;;;14.05;8.38;;;30.20;31.10;;;;;;5087833;28;20046;-80
2022/03/26 08:38:05;;;;;;;13.45;8.13;;;30.00;31.50;;;;;;5060949;28;20032;-79
2022/03/26 08:40:32;;;;;;;17.75;8.27;;;30.10;31.50;;;;;;5065348;28;20058;-79
2022/03/26 08:43:00;;;;;;;16.23;8.68;;;30.40;31.70;;;;;;5074048;28;20052;-79
2022/03/26 08:45:27;;;;;;;16.05;7.88;;;30.80;31.30;;;;;;5055555;28;20024;-79
2022/03/26 08:47:54;;;;;;;17.23;7.75;;;31.00;31.30;;;;;;5073246;28;20074;-79
2022/03/26 08:50:20;;;;;;;19.05;8.75;;;31.40;31.20;;;;;;5055439;28;20050;-80
2022/03/26 08:52:47;;;;;;;16.52;9.15;;;31.40;30.70;;;;;;5073080;28;20029;-79
2022/03/26 08:55:24;;;;;;;14.02;8.73;;;30.50;31.50;;;;;;5055138;28;20027;-79
2022/03/26 08:57:49;;;;;;;22.63;9.68;;;31.00;31.90;;;;;;5080845;28;20012;-78
2022/03/26 09:00:16;;;;;;;14.35;9.52;;;31.30;31.50;;;;;;5075775;28;20481;-78
2022/03/26 09:02:43;;;;;;;17.33;10.27;;;31.40;31.20;;;;;;5093532;28;20111;-76
2022/03/26 09:05:09;;;;;;;15.82;9.68;;;31.80;31.10;;;;;;5093572;28;20028;-77
2022/03/26 09:07:35;;;;;;;21.73;9.75;;;32.00;31.10;;;;;;5093583;28;20032;-77
2022/03/26 09:10:02;;;;;;;18.27;9.40;;;32.40;30.70;;;;;;5093320;28;20031;-78
2022/03/26 09:12:28;;;;;;;26.00;10.27;;;31.10;31.40;;;;;;5075342;28;20028;-78
2022/03/26 09:14:54;;;;;;;18.48;10.30;;;30.50;31.30;;;;;;5094671;28;20020;-78
2022/03/26 09:17:22;;;;;;;18.27;10.57;;;31.00;31.30;;;;;;5074984;28;20047;-79
2022/03/26 09:19:48;;;;;;;20.25;10.68;;;31.50;30.60;;;;;;5093270;28;20436;-77
2022/03/26 09:22:14;;;;;;;20.15;10.77;;;31.60;30.70;;;;;;5075063;28;20459;-77
2022/03/26 09:24:39;;;;;;;19.15;10.57;;;31.80;30.60;;;;;;5092803;28;20028;-77
2022/03/26 09:27:05;;;;;;;18.80;11.10;;;32.50;30.70;;;;;;5095068;28;20089;-79
2022/03/26 09:29:31;;;;;;;22.20;11.90;;;33.00;30.30;;;;;;5076318;28;20046;-78
2022/03/26 09:31:57;;;;;;;28.25;12.00;;;32.60;30.60;;;;;;5076288;28;20378;-79
2022/03/26 09:34:22;;;;;;;16.70;10.73;;;32.70;30.60;;;;;;5077620;28;20389;-79
2022/03/26 09:36:48;;;;;;;17.80;11.00;;;32.90;30.10;;;;;;5077718;28;20075;-78
2022/03/26 09:39:14;;;;;;;19.00;11.07;;;32.80;30.30;;;;;;5077917;28;20024;-79
2022/03/26 09:41:40;;;;;;;22.90;11.88;;;32.80;30.40;;;;;;5076311;28;20111;-78
2022/03/26 09:44:06;;;;;;;23.20;11.25;;;32.70;30.40;;;;;;5075881;28;20074;-80
2022/03/26 09:46:39;;;;;;;27.85;13.20;;;33.10;30.30;;;;;;5070200;28;20032;-84
2022/03/26 09:49:06;;;;;;;16.67;11.10;;;33.10;30.20;;;;;;5073548;28;20452;-80
2022/03/26 09:51:33;;;;;;;17.15;10.52;;;31.40;30.60;;;;;;5059839;28;20039;-81
2022/03/26 09:53:59;;;;;;;17.65;11.13;;;31.80;31.00;;;;;;5058905;28;20048;-80
2022/03/26 09:56:31;;;;;;;19.20;11.20;;;32.10;31.00;;;;;;5071704;28;20085;-80
2022/03/26 09:58:57;;;;;;;21.13;10.35;;;32.60;30.70;;;;;;5073957;28;20158;-81
2022/03/26 10:01:23;;;;;;;16.40;10.55;;;33.30;30.70;;;;;;5073599;28;20021;-80
2022/03/26 10:04:10;;;;;;;16.98;10.27;;;34.00;30.90;;;;;;5055562;28;20471;-82
2022/03/26 10:06:39;;;;;;;18.13;10.60;;;34.00;30.50;;;;;;5067800;28;20067;-81
2022/03/26 10:09:05;;;;;;;21.15;10.02;;;33.00;30.50;;;;;;5073765;28;20036;-82
2022/03/26 10:11:41;;;;;;;103.05;13.60;;;32.50;31.00;;;;;;5070687;28;20039;-82
2022/03/26 10:18:09;;;;;;;25.10;10.70;;;32.90;30.50;;;;;;4968258;28;20133;-82
2022/03/26 10:20:59;;;;;;;25.38;11.48;;;32.10;30.40;;;;;;4959792;28;20039;-83
2022/03/26 10:23:51;;;;;;;25.55;11.27;;;32.30;30.30;;;;;;4956830;28;20035;-85
2022/03/26 10:26:23;;;;;;;17.95;11.20;;;32.80;30.20;;;;;;4965409;28;20391;-84
2022/03/26 10:28:57;;;;;;;18.73;10.55;;;33.70;30.40;;;;;;4963499;28;20055;-83
2022/03/26 10:34:19;;;;;;;17.52;11.15;;;35.50;30.90;;;;;;4970169;28;20915;-84
2022/03/26 10:37:08;;;;;;;27.83;13.73;;;36.00;29.20;;;;;;4943272;28;20031;-82
2022/03/26 10:39:35;;;;;;;21.88;11.85;;;36.30;29.60;;;;;;4952623;28;20069;-80
2022/03/26 10:42:01;;;;;;;19.45;11.63;;;36.30;29.60;;;;;;4966354;28;20489;-80
2022/03/26 10:44:28;;;;;;;21.85;11.35;;;35.90;29.10;;;;;;4969583;28;20531;-80
2022/03/26 10:47:04;;;;;;;21.67;10.20;;;36.10;29.30;;;;;;4969824;28;20039;-80
2022/03/26 10:49:46;;;;;;;17.50;11.73;;;37.40;28.90;;;;;;4970665;28;20130;-81
2022/03/26 10:52:17;;;;;;;19.20;11.85;;;36.30;29.10;;;;;;4972006;28;20038;-80
2022/03/26 10:54:43;;;;;;;18.75;12.75;;;35.30;28.30;;;;;;5050080;28;20044;-81
2022/03/26 10:57:08;;;;;;;15.02;11.50;;;35.20;29.00;;;;;;5053290;28;20063;-77
2022/03/26 10:59:35;;;;;;;17.92;11.68;;;35.00;27.80;;;;;;5058934;28;20120;-80
2022/03/26 11:02:04;;;;;;;20.67;12.18;;;35.20;28.50;;;;;;5053748;28;20115;-82
2022/03/26 11:04:30;;;;;;;33.53;12.15;;;35.50;28.50;;;;;;5075146;28;20448;-81
2022/03/26 11:06:56;;;;;;;20.00;12.00;;;36.20;28.60;;;;;;5059440;28;20505;-83
2022/03/26 11:09:50;;;;;;;20.40;13.15;;;36.60;29.00;;;;;;5064129;28;20036;-81
2022/03/26 11:12:47;;;;;;;19.33;11.38;;;35.60;28.50;;;;;;5075585;28;20067;-80
2022/03/26 11:15:27;;;;;;;19.17;11.82;;;34.10;28.90;;;;;;5075865;28;20021;-86
2022/03/26 11:18:41;;;;;;;19.63;11.20;;;32.10;29.40;;;;;;5057115;28;20386;-81
2022/03/26 11:21:37;;;;;;;19.67;12.32;;;30.80;29.40;;;;;;4974473;28;20062;-80
2022/03/26 11:24:40;;;;;;;18.02;11.07;;;29.10;29.60;;;;;;4956832;28;20089;-80
2022/03/26 11:30:42;;;;;;;17.88;10.75;;;26.50;31.20;;;;;;4954748;29;20557;-79
2022/03/26 11:33:20;;;;;;;17.60;10.82;;;26.30;32.10;;;;;;4938651;29;20083;-83
2022/03/26 11:35:55;;;;;;;16.40;10.52;;;26.30;31.50;;;;;;4939773;29;20106;-80
2022/03/26 11:38:23;;;;;;;21.90;11.07;;;26.20;31.00;;;;;;4935460;29;20422;-79
2022/03/26 11:40:54;;;;;;;29.63;10.82;;;26.20;32.10;;;;;;4927802;29;20593;-81
2022/03/26 11:43:44;;;;;;;24.02;11.35;;;26.40;31.10;;;;;;4941560;29;20118;-79
2022/03/26 11:51:57;;;;;;;22.17;10.77;;;25.50;31.10;;;;;;4939049;29;20069;-79
2022/03/26 11:54:23;;;;;;;22.48;12.38;;;25.60;30.90;;;;;;4947309;28;20037;-84
2022/03/26 11:57:09;;;;;;;21.88;11.23;;;25.30;30.10;;;;;;5010496;28;20136;-80
2022/03/26 11:59:49;;;;;;;23.25;11.25;;;24.90;30.40;;;;;;5016661;28;20034;-81
2022/03/26 12:08:39;;;;;;;20.75;11.98;;;25.30;30.90;;;;;;5066842;28;20044;-81
2022/03/26 12:11:05;;;;;;;26.48;14.38;;;25.50;30.60;;;;;;4983959;28;20042;-82
2022/03/26 12:13:34;;;;;;;21.30;12.57;;;25.30;30.60;;;;;;4982265;28;20062;-80
2022/03/26 12:16:03;;;;;;;22.83;12.35;;;24.80;29.60;;;;;;4958030;28;20031;-83
2022/03/26 12:18:35;;;;;;;19.77;12.77;;;24.70;29.60;;;;;;4957668;28;20030;-82
2022/03/26 12:21:48;;;;;;;22.30;12.27;;;24.50;30.10;;;;;;4963416;28;20533;-80
2022/03/26 12:24:17;;;;;;;20.60;12.25;;;25.00;30.30;;;;;;4973739;28;20034;-79
2022/03/26 12:26:51;;;;;;;21.00;12.13;;;25.00;30.00;;;;;;4973437;28;20035;-80
2022/03/26 12:29:17;;;;;;;25.40;11.98;;;25.40;30.10;;;;;;4975654;28;20096;-80
2022/03/26 12:31:43;;;;;;;22.80;12.60;;;25.10;30.00;;;;;;4992612;28;20421;-81
2022/03/26 12:34:09;;;;;;;23.60;12.40;;;25.30;30.20;;;;;;4977067;28;20555;-81
2022/03/26 12:36:35;;;;;;;23.75;13.15;;;24.80;29.90;;;;;;4976290;28;20026;-81
2022/03/26 12:39:01;;;;;;;25.75;13.10;;;24.90;30.10;;;;;;4976870;28;20045;-80
2022/03/26 12:41:30;;;;;;;21.20;13.35;;;24.70;29.90;;;;;;4976452;28;20038;-80
2022/03/26 12:43:58;;;;;;;23.67;12.98;;;24.60;29.90;;;;;;4976698;28;20477;-81
2022/03/26 12:46:58;;;;;;;19.73;12.88;;;24.80;30.60;;;;;;4974330;28;20030;-84
2022/03/26 12:49:36;;;;;;;18.45;12.75;;;24.60;29.90;;;;;;4992955;28;20057;-81
2022/03/26 12:52:31;;;;;;;25.88;14.70;;;24.00;30.30;;;;;;4988112;28;20026;-83
2022/03/26 12:54:58;;;;;;;25.75;14.45;;;23.90;30.20;;;;;;5012265;28;20066;-79
2022/03/26 12:57:24;;;;;;;28.08;14.13;;;24.10;30.90;;;;;;5013961;28;20026;-80
2022/03/26 13:00:26;;;;;;;22.42;13.65;;;24.70;30.70;;;;;;4996198;28;20040;-82
2022/03/26 13:03:09;;;;;;;22.33;14.18;;;24.80;30.00;;;;;;4647493;28;10000470;-83